Time;durP1;ratioP1;P1;durP2;ratioP2;P2;SDS_P1;SDS_P2;PMS_P1;PMS_P2;Temp;Humidity;BMP_temperature;BMP_pressure;BME280_temperature;BME280_humidity;BME280_pressure;Samples;Min_cycle;Max_cycle;Signal;HPM_P1;HPM_P2
2023/03/07 00:01:20;;;;;;;;;;;;;;;9.04;90.57;99621.41;7358813;19;19919;-61
2023/03/07 00:03:47;;;;;;;;;;;;;;;9.02;90.24;99626.00;7364883;19;19933;-59
2023/03/07 00:06:14;;;;;;;;;;;;;;;8.98;90.36;99619.47;7363903;19;19970;-57
2023/03/07 00:08:41;;;;;;;;;;;;;;;8.96;90.42;99618.81;7363786;19;19927;-61
2023/03/07 00:11:08;;;;;;;;;;;;;;;8.89;90.17;99610.81;7365593;19;19930;-56
2023/03/07 00:13:36;;;;;;;;;;;;;;;8.87;90.47;99607.56;7365862;19;21854;-56
2023/03/07 00:16:06;;;;;;;;;;;;;;;8.84;90.56;99601.84;7361733;19;19931;-55
2023/03/07 00:18:33;;;;;;;;;;;;;;;8.83;90.79;99594.97;7362362;19;20316;-53
2023/03/07 00:21:04;;;;;;;;;;;;;;;8.83;90.65;99592.34;7363058;19;19950;-56
2023/03/07 00:23:32;;;;;;;;;;;;;;;8.82;90.63;99593.34;7364309;19;19930;-57
2023/03/07 00:26:00;;;;;;;;;;;;;;;8.83;90.70;99587.13;7365379;19;20271;-59
2023/03/07 00:28:27;;;;;;;;;;;;;;;8.84;90.92;99592.16;7360325;19;19930;-57
2023/03/07 00:30:58;;;;;;;;;;;;;;;8.85;90.74;99587.75;7359348;19;19945;-59
2023/03/07 00:33:24;;;;;;;;;;;;;;;8.87;90.51;99591.03;7361146;19;20379;-59
2023/03/07 00:35:53;;;;;;;;;;;;;;;8.89;90.32;99581.16;7364625;19;20238;-57
2023/03/07 00:38:20;;;;;;;;;;;;;;;8.91;89.97;99582.63;7363647;19;19947;-60
2023/03/07 00:40:54;;;;;;;;;;;;;;;8.93;90.04;99578.03;7367032;19;19926;-60
2023/03/07 00:43:21;;;;;;;;;;;;;;;8.99;89.92;99582.56;7363478;19;19931;-59
2023/03/07 00:45:48;;;;;;;;;;;;;;;9.01;89.95;99574.53;7360631;19;19922;-56
2023/03/07 00:48:17;;;;;;;;;;;;;;;9.01;90.11;99575.34;7360554;19;19922;-59
2023/03/07 00:50:44;;;;;;;;;;;;;;;9.01;90.42;99575.34;7363656;19;19923;-58
2023/03/07 00:53:10;;;;;;;;;;;;;;;8.97;90.47;99576.69;7361085;19;21515;-58
2023/03/07 00:55:37;;;;;;;;;;;;;;;8.92;90.25;99567.72;7362334;19;20236;-59
2023/03/07 00:58:04;;;;;;;;;;;;;;;8.93;89.90;99564.09;7361284;19;20318;-56
2023/03/07 01:00:31;;;;;;;;;;;;;;;8.89;89.51;99555.75;7360306;19;19919;-59
2023/03/07 01:03:03;;;;;;;;;;;;;;;8.93;90.50;99554.44;7353701;19;20362;-58
2023/03/07 01:05:29;;;;;;;;;;;;;;;8.92;90.37;99551.97;7362052;19;20403;-58
2023/03/07 01:07:56;;;;;;;;;;;;;;;8.87;90.09;99552.50;7361308;19;19923;-57
2023/03/07 01:10:25;;;;;;;;;;;;;;;8.84;90.22;99546.75;7357041;19;20317;-60
2023/03/07 01:12:52;;;;;;;;;;;;;;;8.87;90.49;99549.88;7362107;19;20537;-60
2023/03/07 01:15:19;;;;;;;;;;;;;;;8.89;90.13;99541.81;7360694;19;19923;-58
2023/03/07 01:17:46;;;;;;;;;;;;;;;8.90;89.17;99540.81;7359577;19;19918;-56
2023/03/07 01:20:13;;;;;;;;;;;;;;;8.91;89.87;99529.34;7362904;19;19926;-59
2023/03/07 01:22:40;;;;;;;;;;;;;;;8.88;90.22;99529.72;7357298;19;19929;-60
2023/03/07 01:25:07;;;;;;;;;;;;;;;8.87;90.33;99534.13;7360071;19;19922;-61
2023/03/07 01:27:34;;;;;;;;;;;;;;;8.89;90.36;99526.88;7363014;19;19919;-57
2023/03/07 01:30:01;;;;;;;;;;;;;;;8.89;89.97;99529.50;7359657;19;20233;-59
2023/03/07 01:32:28;;;;;;;;;;;;;;;8.89;90.38;99534.75;7356991;19;19922;-58
2023/03/07 01:34:55;;;;;;;;;;;;;;;8.77;87.75;99524.84;7362179;19;19918;-59
2023/03/07 01:37:22;;;;;;;;;;;;;;;8.63;86.92;99528.22;7359534;19;19922;-58
2023/03/07 01:39:51;;;;;;;;;;;;;;;8.54;87.76;99536.13;7363210;19;20272;-58
2023/03/07 01:42:18;;;;;;;;;;;;;;;8.45;88.46;99525.84;7361575;19;19926;-57
2023/03/07 01:44:48;;;;;;;;;;;;;;;8.34;87.26;99529.66;7360410;19;20669;-59
2023/03/07 01:47:15;;;;;;;;;;;;;;;8.24;87.93;99523.78;7357725;19;19918;-58
2023/03/07 01:49:44;;;;;;;;;;;;;;;8.11;88.27;99521.72;7359580;19;20770;-57
2023/03/07 01:52:13;;;;;;;;;;;;;;;8.00;88.10;99527.31;7358986;19;19926;-58
2023/03/07 01:54:47;;;;;;;;;;;;;;;7.85;87.63;99525.56;7334131;19;21052;-59
2023/03/07 01:57:17;;;;;;;;;;;;;;;7.75;88.02;99525.75;7357161;19;20414;-57
2023/03/07 01:59:46;;;;;;;;;;;;;;;7.69;88.59;99529.03;7335861;19;19927;-56
2023/03/07 02:02:16;;;;;;;;;;;;;;;7.55;87.23;99537.56;7351926;19;19933;-57
2023/03/07 02:04:44;;;;;;;;;;;;;;;7.45;88.14;99531.69;7357480;19;19923;-61
2023/03/07 02:07:12;;;;;;;;;;;;;;;7.41;88.92;99533.81;7360506;19;19940;-60
2023/03/07 02:09:39;;;;;;;;;;;;;;;7.31;87.03;99538.41;7337360;19;19973;-53
2023/03/07 02:12:07;;;;;;;;;;;;;;;7.18;86.50;99536.25;7334895;19;19922;-55
2023/03/07 02:14:34;;;;;;;;;;;;;;;7.08;85.13;99526.94;7351289;19;19926;-57
2023/03/07 02:17:01;;;;;;;;;;;;;;;6.95;85.14;99522.22;7345307;19;20075;-63
2023/03/07 02:19:39;;;;;;;;;;;;;;;6.89;85.28;99533.31;7356740;19;19918;-59
2023/03/07 02:22:08;;;;;;;;;;;;;;;6.78;86.56;99521.34;7349280;19;19923;-60
2023/03/07 02:24:39;;;;;;;;;;;;;;;6.74;87.83;99519.22;7367640;19;19957;-61
2023/03/07 02:27:06;;;;;;;;;;;;;;;6.73;87.96;99517.59;7365884;19;20252;-59
2023/03/07 02:29:33;;;;;;;;;;;;;;;6.69;88.06;99511.06;7365598;19;20501;-58
2023/03/07 02:32:00;;;;;;;;;;;;;;;6.67;88.85;99518.22;7363240;19;19923;-55
2023/03/07 02:34:29;;;;;;;;;;;;;;;6.63;88.16;99520.34;7365557;19;20002;-55
2023/03/07 02:36:59;;;;;;;;;;;;;;;6.63;88.97;99522.97;7359887;19;20490;-58
2023/03/07 02:39:29;;;;;;;;;;;;;;;6.62;89.03;99526.56;7363618;19;19923;-60
2023/03/07 02:41:59;;;;;;;;;;;;;;;6.59;88.40;99508.59;7364632;19;19990;-59
2023/03/07 02:44:26;;;;;;;;;;;;;;;6.57;88.00;99518.38;7363409;19;20369;-60
2023/03/07 02:46:53;;;;;;;;;;;;;;;6.54;88.15;99523.94;7364242;19;19930;-60
2023/03/07 02:49:20;;;;;;;;;;;;;;;6.52;88.74;99512.81;7363114;19;20132;-59
2023/03/07 02:51:47;;;;;;;;;;;;;;;6.54;89.82;99521.31;7360625;19;19931;-59
2023/03/07 02:54:14;;;;;;;;;;;;;;;6.52;90.49;99515.41;7364225;19;19927;-56
2023/03/07 02:56:40;;;;;;;;;;;;;;;6.53;91.03;99514.44;7361345;19;19935;-61
2023/03/07 02:59:07;;;;;;;;;;;;;;;6.56;91.12;99521.13;7362389;19;20031;-59
2023/03/07 03:01:35;;;;;;;;;;;;;;;6.55;90.28;99515.13;7358400;19;19925;-58
2023/03/07 03:04:02;;;;;;;;;;;;;;;6.54;89.34;99526.53;7357765;19;19954;-60
2023/03/07 03:06:29;;;;;;;;;;;;;;;6.55;89.70;99520.34;7366261;19;19934;-59
2023/03/07 03:08:56;;;;;;;;;;;;;;;6.54;89.83;99513.47;7363501;19;19929;-56
2023/03/07 03:11:22;;;;;;;;;;;;;;;6.54;89.71;99517.88;7365187;19;21420;-58
2023/03/07 03:13:49;;;;;;;;;;;;;;;6.56;90.09;99518.53;7362912;19;20492;-57
2023/03/07 03:16:16;;;;;;;;;;;;;;;6.54;90.21;99523.94;7358131;19;19922;-57
2023/03/07 03:18:43;;;;;;;;;;;;;;;6.53;90.27;99516.25;7362961;19;19922;-56
2023/03/07 03:21:11;;;;;;;;;;;;;;;6.52;90.37;99520.66;7363257;19;19922;-60
2023/03/07 03:23:38;;;;;;;;;;;;;;;6.51;90.14;99521.63;7358880;19;19937;-59
2023/03/07 03:26:06;;;;;;;;;;;;;;;6.50;90.07;99522.63;7359790;19;20033;-60
2023/03/07 03:28:34;;;;;;;;;;;;;;;6.47;89.88;99519.47;7363205;19;20445;-58
2023/03/07 03:31:03;;;;;;;;;;;;;;;6.43;88.96;99532.06;7360464;19;20327;-57
2023/03/07 03:33:30;;;;;;;;;;;;;;;6.38;89.29;99523.88;7363554;19;20260;-59
2023/03/07 03:35:58;;;;;;;;;;;;;;;6.34;88.62;99523.38;7360003;19;19962;-58
2023/03/07 03:38:25;;;;;;;;;;;;;;;6.30;88.84;99529.88;7362289;19;20378;-59
2023/03/07 03:40:52;;;;;;;;;;;;;;;6.26;89.14;99518.09;7361705;19;19929;-62
2023/03/07 03:43:18;;;;;;;;;;;;;;;6.22;88.42;99515.97;7362713;19;20223;-58
2023/03/07 03:45:48;;;;;;;;;;;;;;;6.19;88.14;99514.50;7362435;19;20037;-58
2023/03/07 03:48:15;;;;;;;;;;;;;;;6.12;88.32;99512.66;7360203;19;19922;-59
2023/03/07 03:50:42;;;;;;;;;;;;;;;6.09;89.57;99508.59;7363976;19;19934;-57
2023/03/07 03:53:09;;;;;;;;;;;;;;;6.07;88.75;99509.72;7359171;19;20334;-61
2023/03/07 03:55:36;;;;;;;;;;;;;;;6.06;89.21;99503.66;7362308;19;19929;-57
2023/03/07 03:58:03;;;;;;;;;;;;;;;6.06;89.53;99514.13;7360453;19;19910;-60
2023/03/07 04:00:30;;;;;;;;;;;;;;;6.05;89.70;99509.84;7360320;19;19927;-56
2023/03/07 04:02:57;;;;;;;;;;;;;;;6.05;90.11;99506.44;7353748;19;19949;-60
2023/03/07 04:05:24;;;;;;;;;;;;;;;6.04;90.23;99505.63;7360242;19;20307;-58
2023/03/07 04:07:51;;;;;;;;;;;;;;;6.05;89.88;99503.81;7358161;19;19923;-56
2023/03/07 04:10:18;;;;;;;;;;;;;;;6.03;88.65;99509.22;7362100;19;19926;-59
2023/03/07 04:12:45;;;;;;;;;;;;;;;6.01;88.24;99506.75;7359946;19;19921;-58
2023/03/07 04:15:12;;;;;;;;;;;;;;;5.99;88.60;99502.69;7360517;19;19923;-56
2023/03/07 04:17:39;;;;;;;;;;;;;;;5.99;89.05;99500.06;7360951;19;19926;-57
2023/03/07 04:20:12;;;;;;;;;;;;;;;5.97;89.40;99492.38;7362605;19;19923;-57
2023/03/07 04:22:39;;;;;;;;;;;;;;;6.02;89.29;99494.53;7360939;19;21622;-55
2023/03/07 04:25:06;;;;;;;;;;;;;;;5.94;88.48;99492.69;7359287;19;19927;-58
2023/03/07 04:27:34;;;;;;;;;;;;;;;5.93;88.96;99490.25;7361808;19;19926;-59
2023/03/07 04:30:01;;;;;;;;;;;;;;;5.92;89.20;99483.38;7358470;19;19934;-60
2023/03/07 04:32:27;;;;;;;;;;;;;;;5.88;88.40;99475.06;7360225;19;20451;-53
2023/03/07 04:34:54;;;;;;;;;;;;;;;5.89;88.90;99486.31;7362271;19;19994;-60
2023/03/07 04:37:21;;;;;;;;;;;;;;;5.95;89.98;99480.44;7360131;19;20391;-53
2023/03/07 04:39:48;;;;;;;;;;;;;;;5.96;90.39;99492.53;7360719;19;19911;-57
2023/03/07 04:42:15;;;;;;;;;;;;;;;6.00;91.10;99484.22;7361838;19;20533;-58
2023/03/07 04:44:42;;;;;;;;;;;;;;;6.00;90.33;99478.19;7357518;19;19927;-59
2023/03/07 04:47:09;;;;;;;;;;;;;;;5.96;89.17;99480.31;7357601;19;19925;-59
2023/03/07 04:49:36;;;;;;;;;;;;;;;5.94;89.09;99478.84;7358000;19;19918;-58
2023/03/07 04:52:04;;;;;;;;;;;;;;;5.94;89.41;99490.06;7359082;19;21542;-58
2023/03/07 04:54:31;;;;;;;;;;;;;;;5.96;89.63;99488.13;7358707;19;19929;-60
2023/03/07 04:56:58;;;;;;;;;;;;;;;5.95;89.27;99485.66;7357167;19;20509;-58
2023/03/07 04:59:25;;;;;;;;;;;;;;;5.89;89.36;99486.31;7359988;19;19923;-60
2023/03/07 05:01:51;;;;;;;;;;;;;;;5.87;89.31;99478.63;7355225;19;19922;-59
2023/03/07 05:04:18;;;;;;;;;;;;;;;5.87;89.47;99483.84;7354148;19;21218;-60
2023/03/07 05:06:45;;;;;;;;;;;;;;;5.88;89.56;99479.47;7354962;19;19919;-58
2023/03/07 05:09:12;;;;;;;;;;;;;;;5.89;90.00;99491.53;7361141;19;19925;-54
2023/03/07 05:11:39;;;;;;;;;;;;;;;5.90;90.73;99482.72;7358664;19;19911;-60
2023/03/07 05:14:06;;;;;;;;;;;;;;;5.91;90.65;99481.75;7360629;19;19930;-59
2023/03/07 05:16:33;;;;;;;;;;;;;;;5.91;90.63;99479.97;7357726;19;20387;-59
2023/03/07 05:19:00;;;;;;;;;;;;;;;5.92;90.66;99476.38;7359894;19;19919;-59
2023/03/07 05:21:28;;;;;;;;;;;;;;;5.89;89.45;99475.88;7356226;19;19933;-57
2023/03/07 05:23:54;;;;;;;;;;;;;;;5.87;89.57;99480.44;7356468;19;20374;-58
2023/03/07 05:26:21;;;;;;;;;;;;;;;5.89;90.29;99478.50;7356729;19;20521;-63
2023/03/07 05:28:48;;;;;;;;;;;;;;;5.89;90.76;99483.72;7358645;19;19914;-56
2023/03/07 05:31:15;;;;;;;;;;;;;;;5.89;91.00;99478.50;7356162;19;19941;-56
2023/03/07 05:33:44;;;;;;;;;;;;;;;5.90;91.21;99477.50;7359129;19;20019;-60
2023/03/07 05:36:11;;;;;;;;;;;;;;;5.91;90.90;99481.75;7359756;19;19926;-58
2023/03/07 05:38:38;;;;;;;;;;;;;;;5.90;90.53;99478.31;7356329;19;20256;-59
2023/03/07 05:41:05;;;;;;;;;;;;;;;5.93;90.81;99480.63;7358779;19;19919;-59
2023/03/07 05:43:32;;;;;;;;;;;;;;;5.94;90.68;99474.41;7358968;19;19978;-56
2023/03/07 05:45:58;;;;;;;;;;;;;;;5.93;89.92;99480.63;7356917;19;19922;-57
2023/03/07 05:48:26;;;;;;;;;;;;;;;5.93;89.86;99479.81;7359117;19;19918;-58
2023/03/07 05:50:53;;;;;;;;;;;;;;;5.92;90.13;99479.00;7359276;19;19919;-56
2023/03/07 05:53:20;;;;;;;;;;;;;;;5.93;90.04;99466.75;7353663;19;19974;-56
2023/03/07 05:55:46;;;;;;;;;;;;;;;5.91;89.85;99466.09;7356253;19;19934;-61
2023/03/07 05:58:13;;;;;;;;;;;;;;;5.90;89.78;99473.09;7357448;19;19923;-61
2023/03/07 06:00:40;;;;;;;;;;;;;;;5.91;89.28;99476.53;7357166;19;19926;-57
2023/03/07 06:03:07;;;;;;;;;;;;;;;5.92;89.54;99478.16;7356934;19;19923;-55
2023/03/07 06:05:34;;;;;;;;;;;;;;;5.92;89.67;99479.00;7354910;19;19915;-56
2023/03/07 06:08:01;;;;;;;;;;;;;;;5.94;90.31;99482.25;7356544;19;20421;-59
2023/03/07 06:10:28;;;;;;;;;;;;;;;5.98;90.76;99467.09;7353485;19;20498;-58
2023/03/07 06:12:55;;;;;;;;;;;;;;;6.04;90.55;99478.72;7357161;19;20271;-58
2023/03/07 06:15:22;;;;;;;;;;;;;;;6.08;90.65;99475.63;7355443;19;19919;-58
2023/03/07 06:17:51;;;;;;;;;;;;;;;6.08;90.34;99469.59;7355511;19;19925;-57
2023/03/07 06:20:19;;;;;;;;;;;;;;;6.05;90.34;99462.03;7358497;19;19926;-60
2023/03/07 06:22:47;;;;;;;;;;;;;;;6.05;90.39;99460.25;7356666;19;19923;-60
2023/03/07 06:25:15;;;;;;;;;;;;;;;6.04;90.50;99457.81;7358935;19;19914;-59
2023/03/07 06:27:42;;;;;;;;;;;;;;;6.05;90.72;99452.44;7356746;19;19927;-58
2023/03/07 06:30:11;;;;;;;;;;;;;;;6.11;91.69;99459.63;7354881;19;19937;-58
2023/03/07 06:32:38;;;;;;;;;;;;;;;6.10;91.08;99458.00;7356996;19;19962;-55
2023/03/07 06:35:05;;;;;;;;;;;;;;;6.11;90.46;99459.63;7361687;19;20405;-56
2023/03/07 06:37:32;;;;;;;;;;;;;;;6.10;90.49;99460.59;7356705;19;19937;-60
2023/03/07 06:39:59;;;;;;;;;;;;;;;6.13;91.06;99454.25;7358055;19;19919;-57
2023/03/07 06:42:27;;;;;;;;;;;;;;;6.14;91.29;99453.28;7355867;19;19919;-60
2023/03/07 06:44:53;;;;;;;;;;;;;;;6.16;91.66;99453.94;7355890;19;19932;-58
2023/03/07 06:47:21;;;;;;;;;;;;;;;6.14;91.12;99454.13;7354489;19;19926;-60
2023/03/07 06:49:48;;;;;;;;;;;;;;;6.11;91.17;99467.47;7354865;19;21460;-58
2023/03/07 06:52:15;;;;;;;;;;;;;;;6.13;91.37;99465.53;7353781;19;19923;-60
2023/03/07 06:54:42;;;;;;;;;;;;;;;6.14;91.29;99467.16;7359900;19;20220;-59
2023/03/07 06:57:09;;;;;;;;;;;;;;;6.14;90.79;99461.94;7359216;19;20028;-58
2023/03/07 06:59:36;;;;;;;;;;;;;;;6.17;91.22;99466.03;7356373;19;19930;-58
2023/03/07 07:02:04;;;;;;;;;;;;;;;6.17;90.54;99469.44;7358587;19;19923;-62
2023/03/07 07:04:31;;;;;;;;;;;;;;;6.18;90.50;99470.28;7361294;19;21828;-59
2023/03/07 07:06:58;;;;;;;;;;;;;;;6.23;92.11;99473.22;7358633;19;19929;-59
2023/03/07 07:09:25;;;;;;;;;;;;;;;6.26;93.04;99470.28;7362338;19;19911;-60
2023/03/07 07:11:52;;;;;;;;;;;;;;;6.27;93.07;99474.53;7362458;19;19911;-59
2023/03/07 07:14:20;;;;;;;;;;;;;;;6.30;92.83;99466.38;7359065;19;20581;-60
2023/03/07 07:16:47;;;;;;;;;;;;;;;6.30;92.11;99471.59;7357154;19;19962;-59
2023/03/07 07:19:14;;;;;;;;;;;;;;;6.28;91.55;99473.56;7362589;19;19937;-58
2023/03/07 07:21:42;;;;;;;;;;;;;;;6.28;90.96;99477.00;7362460;19;19918;-58
2023/03/07 07:24:12;;;;;;;;;;;;;;;6.31;91.31;99471.44;7362376;19;20501;-59
2023/03/07 07:26:39;;;;;;;;;;;;;;;6.32;91.12;99469.66;7362560;19;21710;-57
2023/03/07 07:29:06;;;;;;;;;;;;;;;6.34;91.15;99473.75;7360928;19;19925;-56
2023/03/07 07:31:33;;;;;;;;;;;;;;;6.40;91.48;99472.28;7362192;19;19923;-56
2023/03/07 07:34:01;;;;;;;;;;;;;;;6.38;90.90;99485.50;7359705;19;21541;-57
2023/03/07 07:36:28;;;;;;;;;;;;;;;6.40;91.02;99483.53;7361557;19;19937;-58
2023/03/07 07:38:55;;;;;;;;;;;;;;;6.43;91.22;99472.78;7360422;19;19915;-59
2023/03/07 07:41:23;;;;;;;;;;;;;;;6.49;91.29;99475.75;7352684;19;19944;-56
2023/03/07 07:43:51;;;;;;;;;;;;;;;6.51;90.86;99485.03;7358998;19;19922;-58
2023/03/07 07:46:19;;;;;;;;;;;;;;;6.53;90.91;99471.81;7359404;19;19930;-61
2023/03/07 07:48:46;;;;;;;;;;;;;;;6.56;91.03;99472.31;7358865;19;19919;-58
2023/03/07 07:51:13;;;;;;;;;;;;;;;6.58;90.97;99483.44;7361081;19;20182;-56
2023/03/07 07:53:40;;;;;;;;;;;;;;;6.63;91.04;99482.94;7360618;19;19919;-58
2023/03/07 07:56:08;;;;;;;;;;;;;;;6.67;90.40;99484.25;7362645;19;20478;-59
2023/03/07 07:58:35;;;;;;;;;;;;;;;6.65;89.54;99484.44;7358938;19;19919;-59
2023/03/07 08:01:05;;;;;;;;;;;;;;;6.65;88.93;99487.03;7356655;19;19922;-57
2023/03/07 08:03:32;;;;;;;;;;;;;;;6.67;88.87;99481.63;7359167;19;19922;-60
2023/03/07 08:05:59;;;;;;;;;;;;;;;6.67;88.42;99492.91;7356204;19;20298;-60
2023/03/07 08:08:27;;;;;;;;;;;;;;;6.72;89.58;99490.63;7357606;19;19923;-58
2023/03/07 08:10:54;;;;;;;;;;;;;;;7.17;99.13;99494.56;7358979;19;19996;-59
2023/03/07 08:13:21;;;;;;;;;;;;;;;7.27;95.50;99498.66;7360231;19;19915;-58
2023/03/07 08:15:48;;;;;;;;;;;;;;;7.19;91.66;99501.28;7338318;19;20013;-59
2023/03/07 08:18:15;;;;;;;;;;;;;;;7.10;89.46;99507.50;7358801;19;19931;-59
2023/03/07 08:20:42;;;;;;;;;;;;;;;7.00;89.12;99490.34;7359168;19;20760;-55
2023/03/07 08:23:12;;;;;;;;;;;;;;;6.92;88.72;99500.78;7359624;19;20462;-59
2023/03/07 08:25:39;;;;;;;;;;;;;;;6.91;89.56;99497.34;7359052;19;19978;-58
2023/03/07 08:28:06;;;;;;;;;;;;;;;6.93;90.03;99497.19;7361130;19;19998;-60
2023/03/07 08:30:34;;;;;;;;;;;;;;;6.94;89.23;99496.22;7359360;19;19926;-57
2023/03/07 08:33:02;;;;;;;;;;;;;;;7.01;88.66;99491.97;7358562;19;19934;-59
2023/03/07 08:35:29;;;;;;;;;;;;;;;7.01;87.16;99499.81;7360375;19;19930;-59
2023/03/07 08:37:59;;;;;;;;;;;;;;;7.08;87.00;99506.03;7356573;19;20273;-61
2023/03/07 08:40:27;;;;;;;;;;;;;;;7.07;85.92;99492.13;7358191;19;19919;-60
2023/03/07 08:42:55;;;;;;;;;;;;;;;7.11;85.74;99493.44;7353190;19;19934;-58
2023/03/07 08:45:22;;;;;;;;;;;;;;;7.13;85.00;99501.13;7358241;19;19918;-59
2023/03/07 08:47:51;;;;;;;;;;;;;;;7.16;85.43;99493.75;7356318;19;19941;-59
2023/03/07 08:50:20;;;;;;;;;;;;;;;7.24;85.26;99508.63;7362083;19;20352;-62
2023/03/07 08:52:47;;;;;;;;;;;;;;;7.25;84.70;99505.03;7351208;19;19926;-59
2023/03/07 08:55:15;;;;;;;;;;;;;;;7.32;85.21;99504.22;7355381;19;19919;-60
2023/03/07 08:57:44;;;;;;;;;;;;;;;7.33;84.01;99510.25;7357019;19;20023;-57
2023/03/07 09:00:13;;;;;;;;;;;;;;;7.31;83.76;99515.66;7358499;19;19946;-57
2023/03/07 09:02:40;;;;;;;;;;;;;;;7.24;82.89;99511.25;7354900;19;19923;-59
2023/03/07 09:05:08;;;;;;;;;;;;;;;7.23;83.44;99509.63;7347298;19;19918;-60
2023/03/07 09:07:36;;;;;;;;;;;;;;;7.17;83.66;99505.84;7340704;19;20007;-59
2023/03/07 09:10:04;;;;;;;;;;;;;;;7.16;83.32;99509.44;7353634;19;19990;-58
2023/03/07 09:12:35;;;;;;;;;;;;;;;7.15;83.21;99510.44;7356619;19;19918;-60
2023/03/07 09:15:03;;;;;;;;;;;;;;;7.18;83.74;99512.72;7357099;19;19926;-58
2023/03/07 09:17:30;;;;;;;;;;;;;;;7.20;83.58;99510.78;7355798;19;19919;-61
2023/03/07 09:19:57;;;;;;;;;;;;;;;7.19;83.30;99505.69;7358738;19;20086;-60
2023/03/07 09:22:25;;;;;;;;;;;;;;;7.20;83.21;99499.50;7360460;19;20489;-58
2023/03/07 09:24:53;;;;;;;;;;;;;;;7.20;83.71;99508.16;7355828;19;19911;-60
2023/03/07 09:27:20;;;;;;;;;;;;;;;7.22;83.87;99498.34;7356827;19;19915;-59
2023/03/07 09:29:49;;;;;;;;;;;;;;;7.24;84.33;99511.25;7358660;19;19926;-59
2023/03/07 09:32:16;;;;;;;;;;;;;;;7.28;83.87;99512.56;7352737;19;19942;-58
2023/03/07 09:34:43;;;;;;;;;;;;;;;7.36;84.48;99506.50;7359583;19;20014;-63
2023/03/07 09:37:11;;;;;;;;;;;;;;;7.34;82.19;99503.22;7354809;19;19933;-59
2023/03/07 09:39:38;;;;;;;;;;;;;;;7.27;82.17;99514.34;7356900;19;20537;-62
2023/03/07 09:42:09;;;;;;;;;;;;;;;7.28;83.06;99515.16;7357546;19;19937;-61
2023/03/07 09:44:39;;;;;;;;;;;;;;;7.27;83.45;99516.16;7357797;19;19925;-61
2023/03/07 09:47:15;;;;;;;;;;;;;;;7.28;83.37;99516.00;7355419;19;19918;-61
2023/03/07 09:49:46;;;;;;;;;;;;;;;7.25;82.55;99515.50;7358641;19;19919;-60
2023/03/07 09:52:15;;;;;;;;;;;;;;;7.22;82.27;99513.19;7323800;19;19926;-61
2023/03/07 09:54:45;;;;;;;;;;;;;;;7.19;81.53;99505.69;7353419;19;20363;-57
2023/03/07 09:57:16;;;;;;;;;;;;;;;7.25;82.17;99503.25;7351621;19;19926;-59
2023/03/07 09:59:45;;;;;;;;;;;;;;;7.29;82.63;99499.31;7356522;19;19929;-60
2023/03/07 10:02:15;;;;;;;;;;;;;;;7.27;81.98;99511.72;7355798;19;19922;-60
2023/03/07 10:04:46;;;;;;;;;;;;;;;7.27;81.61;99500.44;7357204;19;19922;-59
2023/03/07 10:07:14;;;;;;;;;;;;;;;7.35;82.27;99508.31;7356850;19;19923;-59
2023/03/07 10:09:42;;;;;;;;;;;;;;;7.45;82.63;99502.91;7347833;19;20174;-58
2023/03/07 10:12:16;;;;;;;;;;;;;;;7.51;81.36;99507.47;7353402;19;19931;-58
2023/03/07 10:14:47;;;;;;;;;;;;;;;7.59;80.60;99496.97;7357478;19;20372;-61
2023/03/07 10:17:14;;;;;;;;;;;;;;;7.63;79.56;99501.72;7353586;19;19929;-59
2023/03/07 10:19:45;;;;;;;;;;;;;;;7.71;81.29;99499.09;7358979;19;20281;-58
2023/03/07 10:22:13;;;;;;;;;;;;;;;7.79;81.49;99500.84;7356705;19;19930;-58
2023/03/07 10:24:42;;;;;;;;;;;;;;;7.79;79.74;99487.78;7360770;19;19933;-60
2023/03/07 10:27:12;;;;;;;;;;;;;;;7.81;80.24;99493.66;7356779;19;20019;-57
2023/03/07 10:29:45;;;;;;;;;;;;;;;7.87;80.20;99494.81;7355287;19;19982;-62
2023/03/07 10:32:16;;;;;;;;;;;;;;;7.90;80.05;99503.13;7353430;19;19923;-59
2023/03/07 10:34:44;;;;;;;;;;;;;;;7.91;79.44;99504.75;7355115;19;19918;-55
2023/03/07 10:37:15;;;;;;;;;;;;;;;7.95;79.21;99502.63;7363392;19;20305;-61
2023/03/07 10:39:45;;;;;;;;;;;;;;;7.94;77.91;99501.78;7360987;19;20283;-60
2023/03/07 10:42:14;;;;;;;;;;;;;;;7.95;78.55;99503.44;7362649;19;20321;-59
2023/03/07 10:44:44;;;;;;;;;;;;;;;7.94;78.68;99498.34;7362425;19;19933;-59
2023/03/07 10:47:17;;;;;;;;;;;;;;;7.97;79.21;99504.09;7360617;19;19922;-59
2023/03/07 10:49:46;;;;;;;;;;;;;;;8.01;80.90;99499.31;7364189;19;19929;-62
2023/03/07 10:52:16;;;;;;;;;;;;;;;8.04;79.81;99506.84;7361830;19;20374;-60
2023/03/07 10:54:44;;;;;;;;;;;;;;;8.08;78.90;99501.09;7361827;19;20338;-61
2023/03/07 10:57:13;;;;;;;;;;;;;;;8.14;78.86;99497.78;7365990;19;21063;-58
2023/03/07 10:59:43;;;;;;;;;;;;;;;8.21;78.81;99504.97;7359290;19;19927;-60
2023/03/07 11:02:13;;;;;;;;;;;;;;;8.27;79.92;99505.13;7357532;19;19922;-59
2023/03/07 11:04:43;;;;;;;;;;;;;;;8.28;78.59;99501.47;7364348;19;19930;-60
2023/03/07 11:07:13;;;;;;;;;;;;;;;8.32;77.22;99508.06;7361029;19;20601;-59
2023/03/07 11:09:43;;;;;;;;;;;;;;;8.38;73.93;99506.56;7361573;19;20315;-60
2023/03/07 11:12:12;;;;;;;;;;;;;;;8.37;73.04;99512.78;7362857;19;21539;-58
2023/03/07 11:14:46;;;;;;;;;;;;;;;8.35;73.59;99522.63;7362774;19;19922;-58
2023/03/07 11:17:16;;;;;;;;;;;;;;;8.38;74.26;99520.47;7360987;19;20224;-62
2023/03/07 11:19:44;;;;;;;;;;;;;;;8.36;73.51;99522.47;7365354;19;19923;-58
2023/03/07 11:22:15;;;;;;;;;;;;;;;8.37;73.28;99523.28;7364652;19;19923;-57
2023/03/07 11:24:47;;;;;;;;;;;;;;;8.37;73.17;99525.91;7364460;19;20438;-60
2023/03/07 11:27:20;;;;;;;;;;;;;;;8.33;73.45;99527.22;7364229;19;19990;-60
2023/03/07 11:30:04;;;;;;;;;;;;;;;8.28;73.54;99532.13;7363059;19;19955;-59
2023/03/07 11:32:33;;;;;;;;;;;;;;;8.28;73.95;99537.38;7360398;19;19950;-61
2023/03/07 11:35:05;;;;;;;;;;;;;;;8.29;74.00;99526.72;7361759;19;20425;-59
2023/03/07 11:37:35;;;;;;;;;;;;;;;8.27;73.17;99535.75;7363647;19;19919;-58
2023/03/07 11:40:06;;;;;;;;;;;;;;;8.29;73.43;99541.59;7362893;19;19923;-62
2023/03/07 11:42:36;;;;;;;;;;;;;;;8.30;72.75;99553.75;7361715;19;20014;-57
2023/03/07 11:45:06;;;;;;;;;;;;;;;8.30;71.18;99540.66;7361043;19;19995;-59
2023/03/07 11:47:36;;;;;;;;;;;;;;;8.28;72.45;99538.16;7359413;19;20367;-55
2023/03/07 11:50:04;;;;;;;;;;;;;;;8.31;73.34;99543.13;7365003;19;19931;-59
2023/03/07 11:52:34;;;;;;;;;;;;;;;8.39;71.53;99543.06;7361030;19;19923;-60
2023/03/07 11:55:04;;;;;;;;;;;;;;;8.46;71.98;99549.28;7363776;19;20025;-58
2023/03/07 11:57:32;;;;;;;;;;;;;;;8.49;72.08;99548.91;7360775;19;20244;-58
2023/03/07 12:00:14;;;;;;;;;;;;;;;8.52;70.34;99553.84;7363468;19;20003;-62
2023/03/07 12:02:45;;;;;;;;;;;;;;;8.54;69.34;99559.72;7361479;19;21626;-59
2023/03/07 12:05:18;;;;;;;;;;;;;;;8.54;69.54;99549.22;7365029;19;19938;-59
2023/03/07 12:07:49;;;;;;;;;;;;;;;8.63;69.45;99552.63;7364237;19;19915;-60
2023/03/07 12:10:27;;;;;;;;;;;;;;;8.70;69.24;99553.56;7361336;19;19919;-59
2023/03/07 12:12:59;;;;;;;;;;;;;;;8.79;69.27;99555.16;7363922;19;19934;-59
2023/03/07 12:15:29;;;;;;;;;;;;;;;8.85;69.35;99549.22;7361314;19;19919;-60
2023/03/07 12:18:02;;;;;;;;;;;;;;;8.91;69.63;99550.34;7359708;19;19927;-58
2023/03/07 12:20:36;;;;;;;;;;;;;;;8.90;69.74;99551.31;7362313;19;20101;-57
2023/03/07 12:23:09;;;;;;;;;;;;;;;8.90;69.85;99546.06;7363018;19;20283;-60
2023/03/07 12:25:37;;;;;;;;;;;;;;;8.93;68.91;99551.00;7360587;19;20557;-57
2023/03/07 12:28:07;;;;;;;;;;;;;;;8.92;68.67;99552.78;7362174;19;19922;-58
2023/03/07 12:30:38;;;;;;;;;;;;;;;8.94;68.84;99553.41;7359553;19;19922;-58
2023/03/07 12:33:05;;;;;;;;;;;;;;;8.96;68.20;99546.19;7360067;19;20228;-59
2023/03/07 12:35:42;;;;;;;;;;;;;;;8.97;67.17;99549.66;7362475;19;19930;-58
2023/03/07 12:38:10;;;;;;;;;;;;;;;8.98;66.49;99556.53;7361984;19;19934;-59
2023/03/07 12:40:40;;;;;;;;;;;;;;;8.97;66.11;99553.09;7363369;19;19955;-59
2023/03/07 12:43:11;;;;;;;;;;;;;;;9.00;66.62;99555.34;7362052;19;19929;-59
2023/03/07 12:45:44;;;;;;;;;;;;;;;9.04;67.24;99562.88;7360661;19;19994;-56
2023/03/07 12:48:15;;;;;;;;;;;;;;;8.96;64.67;99555.88;7358076;19;19915;-59
2023/03/07 12:50:43;;;;;;;;;;;;;;;8.90;65.04;99561.81;7363161;19;19919;-60
2023/03/07 12:53:21;;;;;;;;;;;;;;;8.92;66.61;99562.47;7266370;19;19925;-59
2023/03/07 12:55:54;;;;;;;;;;;;;;;8.94;64.75;99563.09;7316301;19;20402;-59
2023/03/07 12:58:24;;;;;;;;;;;;;;;8.97;63.95;99558.34;7346400;19;19955;-58
2023/03/07 13:00:56;;;;;;;;;;;;;;;8.97;64.32;99560.94;7359555;19;19941;-60
2023/03/07 13:03:26;;;;;;;;;;;;;;;9.06;64.73;99559.09;7358706;19;20454;-61